createdAt,value
2023-03-21T00:00:03.441Z,1002.82
2023-03-21T00:01:03.517Z,1002.84
2023-03-21T00:02:03.595Z,1002.82
2023-03-21T00:03:03.673Z,1002.76
2023-03-21T00:04:03.796Z,1002.80
2023-03-21T00:05:15.074Z,1002.75
2023-03-21T00:06:03.884Z,1002.76
2023-03-21T00:07:03.985Z,1002.77
2023-03-21T00:08:04.086Z,1002.74
2023-03-21T00:09:04.186Z,1002.75
2023-03-21T00:10:14.340Z,1002.73
2023-03-21T00:11:04.352Z,1002.73
2023-03-21T00:12:04.422Z,1002.71
2023-03-21T00:13:04.548Z,1002.68
2023-03-21T00:14:04.581Z,1002.74
2023-03-21T00:15:04.658Z,1002.69
2023-03-21T00:16:08.081Z,1002.68
2023-03-21T00:17:04.834Z,1002.67
2023-03-21T00:18:04.915Z,1002.64
2023-03-21T00:19:05.004Z,1002.63
2023-03-21T00:20:05.085Z,1002.60
2023-03-21T00:21:37.678Z,1002.60
2023-03-21T00:22:08.005Z,1002.61
2023-03-21T00:23:05.338Z,1002.57
2023-03-21T00:24:05.412Z,1002.56
2023-03-21T00:25:05.485Z,1002.54
2023-03-21T00:26:05.585Z,1002.56
2023-03-21T00:27:33.712Z,1002.54
2023-03-21T00:28:08.652Z,1002.54
2023-03-21T00:29:05.769Z,1002.54
2023-03-21T00:30:05.855Z,1002.51
2023-03-21T00:31:05.930Z,1002.49
2023-03-21T00:32:06.040Z,1002.48
2023-03-21T00:33:21.573Z,1002.47
2023-03-21T00:34:06.195Z,1002.49
2023-03-21T00:35:34.750Z,1002.44
2023-03-21T00:36:06.955Z,1002.45
2023-03-21T00:37:06.434Z,1002.43
2023-03-21T00:38:06.551Z,1002.45
2023-03-21T00:39:06.618Z,1002.44
2023-03-21T00:40:08.671Z,1002.45
2023-03-21T00:41:18.860Z,1002.42
2023-03-21T00:42:06.910Z,1002.43
2023-03-21T00:43:06.999Z,1002.42
2023-03-21T00:44:07.052Z,1002.40
2023-03-21T00:45:07.138Z,1002.42
2023-03-21T00:46:07.241Z,1002.35
2023-03-21T00:47:08.178Z,1002.35
2023-03-21T00:48:07.491Z,1002.37
2023-03-21T00:49:07.486Z,1002.36
2023-03-21T00:50:07.559Z,1002.38
2023-03-21T00:51:07.614Z,1002.34
2023-03-21T00:52:16.043Z,1002.33
2023-03-21T00:53:07.802Z,1002.29
2023-03-21T00:54:07.912Z,1002.31
2023-03-21T00:55:07.913Z,1002.29
2023-03-21T00:56:08.019Z,1002.29
2023-03-21T00:57:08.091Z,1002.32
2023-03-21T00:58:08.173Z,1002.31
2023-03-21T00:59:08.218Z,1002.27
2023-03-21T01:00:08.299Z,1002.24
2023-03-21T01:01:08.424Z,1002.27
2023-03-21T01:02:08.489Z,1002.26
2023-03-21T01:03:23.224Z,1002.26
2023-03-21T01:04:08.615Z,1002.29
2023-03-21T01:05:08.691Z,1002.27
2023-03-21T01:06:08.765Z,1002.25
2023-03-21T01:07:08.847Z,1002.23
2023-03-21T01:08:23.774Z,1002.21
2023-03-21T01:09:09.026Z,1002.23
2023-03-21T01:10:09.096Z,1002.21
2023-03-21T01:11:09.162Z,1002.22
2023-03-21T01:12:09.248Z,1002.21
2023-03-21T01:13:09.396Z,1002.24
2023-03-21T01:14:21.519Z,1002.21
2023-03-21T01:15:09.475Z,1002.20
2023-03-21T01:16:09.580Z,1002.17
2023-03-21T01:17:09.636Z,1002.17
2023-03-21T01:18:09.746Z,1002.17
2023-03-21T01:19:22.071Z,1002.14
2023-03-21T01:20:09.882Z,1002.17
2023-03-21T01:21:09.949Z,1002.11
2023-03-21T01:22:10.054Z,1002.10
2023-03-21T01:23:10.139Z,1002.05
2023-03-21T01:24:10.181Z,1002.08
2023-03-21T01:25:21.828Z,1002.05
2023-03-21T01:26:10.355Z,1002.12
2023-03-21T01:27:10.428Z,1002.03
2023-03-21T01:28:10.560Z,1002.03
2023-03-21T01:29:10.597Z,1002.02
2023-03-21T01:30:19.152Z,1002.04
2023-03-21T01:31:10.791Z,1002.02
2023-03-21T01:32:10.838Z,1001.99
2023-03-21T01:33:10.929Z,1001.98
2023-03-21T01:34:10.985Z,1002.00
2023-03-21T01:35:11.058Z,1001.99
2023-03-21T01:36:13.485Z,1001.97
2023-03-21T01:37:11.224Z,1001.97
2023-03-21T01:38:11.321Z,1001.97
2023-03-21T01:39:11.356Z,1001.97
2023-03-21T01:40:11.446Z,1001.93
2023-03-21T01:41:19.541Z,1001.95
2023-03-21T01:42:11.603Z,1001.99
2023-03-21T01:43:11.761Z,1001.98
2023-03-21T01:44:11.743Z,1001.94
2023-03-21T01:45:11.821Z,1002.01
2023-03-21T01:46:11.925Z,1001.93
2023-03-21T01:47:12.870Z,1001.98
2023-03-21T01:48:12.122Z,1001.96
2023-03-21T01:49:12.152Z,1001.97
2023-03-21T01:50:12.257Z,1001.95
2023-03-21T01:51:12.316Z,1001.96
2023-03-21T01:52:21.083Z,1001.93
2023-03-21T01:53:12.520Z,1001.95
2023-03-21T01:54:12.571Z,1001.92
2023-03-21T01:55:12.761Z,1001.92
2023-03-21T01:56:12.717Z,1001.89
2023-03-21T01:57:12.783Z,1001.90
2023-03-21T01:58:12.930Z,1001.88
2023-03-21T01:59:12.933Z,1001.90
2023-03-21T02:00:13.072Z,1001.85
2023-03-21T02:01:13.114Z,1001.85
2023-03-21T02:02:13.184Z,1001.83
2023-03-21T02:03:21.002Z,1001.85
2023-03-21T02:04:13.370Z,1001.86
2023-03-21T02:05:13.408Z,1001.83
2023-03-21T02:06:13.484Z,1001.83
2023-03-21T02:07:13.543Z,1001.78
2023-03-21T02:08:13.671Z,1001.78
2023-03-21T02:09:13.732Z,1001.82
2023-03-21T02:10:13.812Z,1001.72
2023-03-21T02:11:13.899Z,1001.74
2023-03-21T02:12:13.973Z,1001.77
2023-03-21T02:13:14.076Z,1001.72
2023-03-21T02:14:17.743Z,1001.74
2023-03-21T02:15:14.203Z,1001.69
2023-03-21T02:16:14.358Z,1001.69
2023-03-21T02:17:14.373Z,1001.67
2023-03-21T02:18:14.497Z,1001.65
2023-03-21T02:19:17.645Z,1001.66
2023-03-21T02:20:14.631Z,1001.63
2023-03-21T02:21:14.713Z,1001.58
2023-03-21T02:22:14.776Z,1001.56
2023-03-21T02:23:14.856Z,1001.60
2023-03-21T02:24:14.955Z,1001.60
2023-03-21T02:25:21.870Z,1001.54
2023-03-21T02:26:15.117Z,1001.55
2023-03-21T02:27:15.174Z,1001.55
2023-03-21T02:28:15.282Z,1001.53
2023-03-21T02:29:15.463Z,1001.51
2023-03-21T02:30:26.556Z,1001.52
2023-03-21T02:31:15.572Z,1001.46
2023-03-21T02:32:25.327Z,1001.46
2023-03-21T02:33:15.706Z,1001.44
2023-03-21T02:34:15.736Z,1001.43
2023-03-21T02:35:15.798Z,1001.42
2023-03-21T02:36:15.953Z,1001.42
2023-03-21T02:37:17.184Z,1001.37
2023-03-21T02:38:16.059Z,1001.34
2023-03-21T02:39:16.111Z,1001.33
2023-03-21T02:40:16.219Z,1001.35
2023-03-21T02:41:19.521Z,1001.32
2023-03-21T02:42:16.362Z,1001.31
2023-03-21T02:43:23.068Z,1001.33
2023-03-21T02:44:16.530Z,1001.35
2023-03-21T02:45:16.591Z,1001.33
2023-03-21T02:46:16.721Z,1001.32
2023-03-21T02:47:16.824Z,1001.36
2023-03-21T02:48:27.878Z,1001.37
2023-03-21T02:49:16.908Z,1001.37
2023-03-21T02:50:17.011Z,1001.36
2023-03-21T02:51:17.084Z,1001.37
2023-03-21T02:52:31.690Z,1001.31
2023-03-21T02:53:17.290Z,1001.30
2023-03-21T02:54:30.301Z,1001.29
2023-03-21T02:55:17.406Z,1001.27
2023-03-21T02:56:17.485Z,1001.30
2023-03-21T02:57:17.571Z,1001.25
2023-03-21T02:58:17.688Z,1001.28
2023-03-21T02:59:17.749Z,1001.28
2023-03-21T03:00:18.172Z,1001.28
2023-03-21T03:01:17.946Z,1001.28
2023-03-21T03:02:17.977Z,1001.27
2023-03-21T03:03:31.545Z,1001.27
2023-03-21T03:04:18.174Z,1001.26
2023-03-21T03:05:21.968Z,1001.28
2023-03-21T03:06:18.316Z,1001.28
2023-03-21T03:07:18.398Z,1001.27
2023-03-21T03:08:18.512Z,1001.25
2023-03-21T03:09:18.546Z,1001.26
2023-03-21T03:10:18.644Z,1001.22
2023-03-21T03:11:18.729Z,1001.24
2023-03-21T03:12:18.803Z,1001.23
2023-03-21T03:13:18.895Z,1001.22
2023-03-21T03:14:40.102Z,1001.20
2023-03-21T03:15:19.071Z,1001.24
2023-03-21T03:16:19.140Z,1001.28
2023-03-21T03:17:19.223Z,1001.22
2023-03-21T03:18:21.046Z,1001.21
2023-03-21T03:19:19.394Z,1001.19
2023-03-21T03:20:19.510Z,1001.17
2023-03-21T03:21:19.547Z,1001.19
2023-03-21T03:22:19.615Z,1001.21
2023-03-21T03:23:19.696Z,1001.17
2023-03-21T03:24:19.768Z,1001.15
2023-03-21T03:25:32.445Z,1001.15
2023-03-21T03:26:19.934Z,1001.18
2023-03-21T03:27:20.014Z,1001.15
2023-03-21T03:28:20.107Z,1001.16
2023-03-21T03:29:20.189Z,1001.20
2023-03-21T03:30:21.363Z,1001.14
2023-03-21T03:31:20.950Z,1001.15
2023-03-21T03:32:20.437Z,1001.10
2023-03-21T03:33:20.537Z,1001.07
2023-03-21T03:34:20.599Z,1001.06
2023-03-21T03:35:20.686Z,1001.03
2023-03-21T03:36:33.685Z,1001.02
2023-03-21T03:37:20.851Z,1001.00
2023-03-21T03:38:20.936Z,1001.07
2023-03-21T03:39:21.001Z,1001.01
2023-03-21T03:40:21.100Z,1001.04
2023-03-21T03:41:21.381Z,1001.00
2023-03-21T03:42:27.953Z,1001.03
2023-03-21T03:43:21.338Z,1001.05
2023-03-21T03:44:21.415Z,1000.97
2023-03-21T03:45:21.525Z,1000.98
2023-03-21T03:46:21.607Z,1000.95
2023-03-21T03:47:32.266Z,1000.95
2023-03-21T03:48:21.813Z,1000.97
2023-03-21T03:49:21.838Z,1000.98
2023-03-21T03:50:21.942Z,1000.98
2023-03-21T03:51:21.982Z,1000.97
2023-03-21T03:52:22.067Z,1000.95
2023-03-21T03:53:22.136Z,1000.96
2023-03-21T03:54:22.229Z,1000.95
2023-03-21T03:55:22.321Z,1000.89
2023-03-21T03:56:22.400Z,1000.92
2023-03-21T03:57:22.469Z,1000.88
2023-03-21T03:58:24.817Z,1000.85
2023-03-21T03:59:22.616Z,1000.88
2023-03-21T04:00:22.722Z,1000.87
2023-03-21T04:01:22.764Z,1000.86
2023-03-21T04:02:22.940Z,1000.87
2023-03-21T04:03:23.061Z,1000.89
2023-03-21T04:04:23.175Z,1000.87
2023-03-21T04:05:23.173Z,1000.94
2023-03-21T04:06:23.235Z,1000.89
2023-03-21T04:07:23.325Z,1000.89
2023-03-21T04:08:23.412Z,1000.89
2023-03-21T04:09:28.961Z,1000.86
2023-03-21T04:10:23.601Z,1000.82
2023-03-21T04:11:23.642Z,1000.84
2023-03-21T04:12:23.709Z,1000.86
2023-03-21T04:13:23.803Z,1000.90
2023-03-21T04:14:25.592Z,1000.87
2023-03-21T04:15:23.962Z,1000.84
2023-03-21T04:16:24.059Z,1000.85
2023-03-21T04:17:24.100Z,1000.85
2023-03-21T04:18:24.171Z,1000.87
2023-03-21T04:19:24.259Z,1000.84
2023-03-21T04:20:36.137Z,1000.87
2023-03-21T04:21:24.412Z,1000.82
2023-03-21T04:22:24.484Z,1000.83
2023-03-21T04:23:24.568Z,1000.82
2023-03-21T04:24:24.659Z,1000.81
2023-03-21T04:25:33.292Z,1000.79
2023-03-21T04:26:24.824Z,1000.81
2023-03-21T04:27:24.902Z,1000.80
2023-03-21T04:28:25.002Z,1000.78
2023-03-21T04:29:25.073Z,1000.76
2023-03-21T04:30:25.188Z,1000.80
2023-03-21T04:31:26.370Z,1000.83
2023-03-21T04:32:25.320Z,1000.79
2023-03-21T04:33:25.405Z,1000.80
2023-03-21T04:34:25.474Z,1000.79
2023-03-21T04:35:25.562Z,1000.83
2023-03-21T04:36:25.637Z,1000.79
2023-03-21T04:37:25.716Z,1000.75
2023-03-21T04:38:25.789Z,1000.79
2023-03-21T04:39:25.864Z,1000.75
2023-03-21T04:40:25.979Z,1000.76
2023-03-21T04:41:26.036Z,1000.74
2023-03-21T04:42:26.112Z,1000.74
2023-03-21T04:43:26.184Z,1000.76
2023-03-21T04:44:26.268Z,1000.76
2023-03-21T04:45:26.350Z,1000.80
2023-03-21T04:46:26.427Z,1000.76
2023-03-21T04:47:26.540Z,1000.76
2023-03-21T04:48:26.616Z,1000.78
2023-03-21T04:49:26.690Z,1000.75
2023-03-21T04:50:26.787Z,1000.76
2023-03-21T04:51:26.856Z,1000.78
2023-03-21T04:52:26.940Z,1000.77
2023-03-21T04:53:27.015Z,1000.78
2023-03-21T04:54:27.091Z,1000.77
2023-03-21T04:55:27.209Z,1000.75
2023-03-21T04:56:27.260Z,1000.76
2023-03-21T04:57:27.348Z,1000.78
2023-03-21T04:58:27.422Z,1000.76
2023-03-21T04:59:27.516Z,1000.79
2023-03-21T05:00:27.615Z,1000.79
2023-03-21T05:01:27.700Z,1000.79
2023-03-21T05:02:27.742Z,1000.76
2023-03-21T05:03:27.832Z,1000.77
2023-03-21T05:04:27.947Z,1000.76
2023-03-21T05:05:27.987Z,1000.78
2023-03-21T05:06:28.034Z,1000.80
2023-03-21T05:07:28.108Z,1000.71
2023-03-21T05:08:28.167Z,1000.74
2023-03-21T05:09:28.258Z,1000.72
2023-03-21T05:10:28.350Z,1000.73
2023-03-21T05:11:28.424Z,1000.79
2023-03-21T05:12:28.500Z,1000.80
2023-03-21T05:13:28.576Z,1000.78
2023-03-21T05:14:28.656Z,1000.76
2023-03-21T05:15:28.784Z,1000.81
2023-03-21T05:16:28.878Z,1000.80
2023-03-21T05:17:28.921Z,1000.82
2023-03-21T05:18:28.996Z,1000.83
2023-03-21T05:19:29.113Z,1000.82
2023-03-21T05:20:29.206Z,1000.85
2023-03-21T05:21:29.278Z,1000.83
2023-03-21T05:22:29.348Z,1000.82
2023-03-21T05:23:29.402Z,1000.78
2023-03-21T05:24:29.484Z,1000.75
2023-03-21T05:25:29.593Z,1000.73
2023-03-21T05:26:29.638Z,1000.70
2023-03-21T05:27:29.712Z,1000.72
2023-03-21T05:28:29.797Z,1000.78
2023-03-21T05:29:29.883Z,1000.81
2023-03-21T05:30:29.976Z,1000.75
2023-03-21T05:31:30.042Z,1000.80
2023-03-21T05:32:30.120Z,1000.77
2023-03-21T05:33:30.197Z,1000.78
2023-03-21T05:34:30.252Z,1000.80
2023-03-21T05:35:30.354Z,1000.78
2023-03-21T05:36:30.378Z,1000.81
2023-03-21T05:37:30.475Z,1000.79
2023-03-21T05:38:30.526Z,1000.76
2023-03-21T05:39:30.634Z,1000.78
2023-03-21T05:40:30.714Z,1000.79
2023-03-21T05:41:30.793Z,1000.79
2023-03-21T05:42:30.942Z,1000.79
2023-03-21T05:43:30.983Z,1000.73
2023-03-21T05:44:31.029Z,1000.74
2023-03-21T05:45:31.146Z,1000.77
2023-03-21T05:46:31.277Z,1000.73
2023-03-21T05:47:31.293Z,1000.73
2023-03-21T05:48:31.369Z,1000.74
2023-03-21T05:49:31.439Z,1000.73
2023-03-21T05:50:31.541Z,1000.72
2023-03-21T05:51:31.616Z,1000.68
2023-03-21T05:52:31.694Z,1000.66
2023-03-21T05:53:31.767Z,1000.65
2023-03-21T05:54:31.848Z,1000.66
2023-03-21T05:55:31.930Z,1000.64
2023-03-21T05:56:31.980Z,1000.65
2023-03-21T05:57:32.079Z,1000.69
2023-03-21T05:58:32.155Z,1000.70
2023-03-21T05:59:32.242Z,1000.67
2023-03-21T06:00:32.338Z,1000.71
2023-03-21T06:01:32.416Z,1000.71
2023-03-21T06:02:32.519Z,1000.71
2023-03-21T06:03:32.621Z,1000.72
2023-03-21T06:04:32.660Z,1000.69
2023-03-21T06:05:32.780Z,1000.72
2023-03-21T06:06:32.832Z,1000.74
2023-03-21T06:07:32.902Z,1000.72
2023-03-21T06:08:32.980Z,1000.71
2023-03-21T06:09:33.059Z,1000.72
2023-03-21T06:10:33.142Z,1000.74
2023-03-21T06:11:33.214Z,1000.73
2023-03-21T06:12:33.290Z,1000.73
2023-03-21T06:13:33.366Z,1000.79
2023-03-21T06:14:33.454Z,1000.77
2023-03-21T06:15:33.812Z,1000.79
2023-03-21T06:16:33.573Z,1000.78
2023-03-21T06:17:33.650Z,1000.81
2023-03-21T06:18:33.730Z,1000.79
2023-03-21T06:19:33.807Z,1000.80
2023-03-21T06:20:33.894Z,1000.82
2023-03-21T06:21:33.988Z,1000.78
2023-03-21T06:22:34.075Z,1000.79
2023-03-21T06:23:34.152Z,1000.79
2023-03-21T06:24:34.225Z,1000.77
2023-03-21T06:25:34.354Z,1000.80
2023-03-21T06:26:34.392Z,1000.80
2023-03-21T06:27:34.496Z,1000.80
2023-03-21T06:28:34.562Z,1000.84
2023-03-21T06:29:34.652Z,1000.84
2023-03-21T06:30:34.735Z,1000.83
2023-03-21T06:31:34.820Z,1000.83
2023-03-21T06:32:34.866Z,1000.83
2023-03-21T06:33:34.964Z,1000.80
2023-03-21T06:34:35.033Z,1000.85
2023-03-21T06:35:35.413Z,1000.84
2023-03-21T06:36:35.190Z,1000.88
2023-03-21T06:37:35.262Z,1000.86
2023-03-21T06:38:35.314Z,1000.89
2023-03-21T06:39:35.401Z,1000.89
2023-03-21T06:40:35.487Z,1000.89
2023-03-21T06:41:35.532Z,1000.92
2023-03-21T06:42:35.589Z,1000.92
2023-03-21T06:43:35.674Z,1000.93
2023-03-21T06:44:35.727Z,1000.95
2023-03-21T06:45:36.074Z,1000.96
2023-03-21T06:46:35.918Z,1000.96
2023-03-21T06:47:35.989Z,1000.92
2023-03-21T06:48:36.044Z,1000.96
2023-03-21T06:49:36.127Z,1000.99
2023-03-21T06:50:36.214Z,1000.99
2023-03-21T06:51:36.298Z,1001.04
2023-03-21T06:52:36.352Z,1001.01
2023-03-21T06:53:36.438Z,1001.03
2023-03-21T06:54:36.513Z,1001.02
2023-03-21T06:55:36.928Z,1001.04
2023-03-21T06:56:36.651Z,1001.08
2023-03-21T06:57:36.735Z,1001.07
2023-03-21T06:58:36.817Z,1001.14
2023-03-21T06:59:36.877Z,1001.07
2023-03-21T07:00:36.994Z,1001.02
2023-03-21T07:01:37.033Z,1001.07
2023-03-21T07:02:37.124Z,1001.05
2023-03-21T07:03:37.163Z,1001.08
2023-03-21T07:04:37.221Z,1001.09
2023-03-21T07:05:37.599Z,1001.07
2023-03-21T07:06:37.393Z,1001.04
2023-03-21T07:07:37.495Z,1001.03
2023-03-21T07:08:37.550Z,1001.10
2023-03-21T07:09:37.632Z,1001.10
2023-03-21T07:10:37.709Z,1001.10
2023-03-21T07:11:37.805Z,1001.14
2023-03-21T07:12:37.841Z,1001.15
2023-03-21T07:13:37.911Z,1001.12
2023-03-21T07:14:37.973Z,1001.11
2023-03-21T07:15:38.494Z,1001.14
2023-03-21T07:16:38.181Z,1001.16
2023-03-21T07:17:38.213Z,1001.16
2023-03-21T07:18:38.271Z,1001.17
2023-03-21T07:19:38.370Z,1001.15
2023-03-21T07:20:38.453Z,1001.13
2023-03-21T07:21:38.494Z,1001.13
2023-03-21T07:22:38.552Z,1001.13
2023-03-21T07:23:38.641Z,1001.17
2023-03-21T07:24:38.740Z,1001.21
2023-03-21T07:25:39.112Z,1001.21
2023-03-21T07:26:38.894Z,1001.22
2023-03-21T07:27:40.884Z,1001.19
2023-03-21T07:28:39.044Z,1001.22
2023-03-21T07:29:39.115Z,1001.22
2023-03-21T07:30:41.010Z,1001.18
2023-03-21T07:31:39.270Z,1001.13
2023-03-21T07:32:39.373Z,1001.12
2023-03-21T07:33:39.455Z,1001.16
2023-03-21T07:34:39.519Z,1001.14
2023-03-21T07:35:39.998Z,1001.12
2023-03-21T07:36:39.713Z,1001.13
2023-03-21T07:37:39.786Z,1001.14
2023-03-21T07:38:39.853Z,1001.12
2023-03-21T07:39:39.952Z,1001.09
2023-03-21T07:40:40.251Z,1001.08
2023-03-21T07:41:40.103Z,1001.08
2023-03-21T07:42:40.201Z,1001.09
2023-03-21T07:43:40.265Z,1001.05
2023-03-21T07:44:40.355Z,1001.09
2023-03-21T07:45:40.793Z,1001.07
2023-03-21T07:46:40.504Z,1001.07
2023-03-21T07:47:40.639Z,1001.07
2023-03-21T07:48:40.645Z,1001.10
2023-03-21T07:49:40.749Z,1001.06
2023-03-21T07:50:40.808Z,1001.04
2023-03-21T07:51:40.885Z,1001.05
2023-03-21T07:52:41.006Z,1001.08
2023-03-21T07:53:41.066Z,1001.11
2023-03-21T07:54:41.143Z,1001.11
2023-03-21T07:55:41.220Z,1001.05
2023-03-21T07:56:41.297Z,1001.12
2023-03-21T07:57:41.404Z,1001.13
2023-03-21T07:58:41.441Z,1001.11
2023-03-21T07:59:41.509Z,1001.10
2023-03-21T08:00:41.600Z,1001.06
2023-03-21T08:01:41.675Z,1001.10
2023-03-21T08:02:41.825Z,1001.13
2023-03-21T08:03:41.936Z,1001.11
2023-03-21T08:04:41.890Z,1001.08
2023-03-21T08:05:42.313Z,1001.09
2023-03-21T08:06:42.040Z,1001.12
2023-03-21T08:07:42.140Z,1001.15
2023-03-21T08:08:42.191Z,1001.12
2023-03-21T08:09:42.260Z,1001.12
2023-03-21T08:10:42.343Z,1001.12
2023-03-21T08:11:42.402Z,1001.07
2023-03-21T08:12:42.521Z,1001.10
2023-03-21T08:13:42.556Z,1001.09
2023-03-21T08:14:42.640Z,1001.11
2023-03-21T08:15:42.740Z,1001.08
2023-03-21T08:16:42.932Z,1001.14
2023-03-21T08:17:42.887Z,1001.07
2023-03-21T08:18:42.930Z,1001.09
2023-03-21T08:19:43.012Z,1001.07
2023-03-21T08:20:43.098Z,1001.08
2023-03-21T08:21:43.173Z,1001.11
2023-03-21T08:22:43.272Z,1001.10
2023-03-21T08:23:43.358Z,1001.09
2023-03-21T08:24:43.446Z,1001.09
2023-03-21T08:25:43.546Z,1001.09
2023-03-21T08:26:43.597Z,1001.06
2023-03-21T08:27:43.715Z,1001.08
2023-03-21T08:28:43.740Z,1001.08
2023-03-21T08:29:43.815Z,1001.06
2023-03-21T08:30:43.939Z,1001.15
2023-03-21T08:31:43.999Z,1001.10
2023-03-21T08:32:44.100Z,1001.07
2023-03-21T08:33:44.149Z,1001.04
2023-03-21T08:34:44.229Z,1001.05
2023-03-21T08:35:44.584Z,1001.06
2023-03-21T08:36:44.361Z,1001.04
2023-03-21T08:37:44.457Z,1001.06
2023-03-21T08:38:44.506Z,1001.07
2023-03-21T08:39:44.598Z,1001.10
2023-03-21T08:40:44.648Z,1001.08
2023-03-21T08:41:44.727Z,1001.15
2023-03-21T08:42:44.827Z,1001.14
2023-03-21T08:43:44.866Z,1001.11
2023-03-21T08:44:44.947Z,1001.18
2023-03-21T08:45:45.015Z,1001.17
2023-03-21T08:46:45.159Z,1001.18
2023-03-21T08:47:45.205Z,1001.16
2023-03-21T08:48:45.217Z,1001.17
2023-03-21T08:49:45.297Z,1001.19
2023-03-21T08:50:45.472Z,1001.17
2023-03-21T08:51:45.441Z,1001.14
2023-03-21T08:52:45.549Z,1001.17
2023-03-21T08:53:45.602Z,1001.17
2023-03-21T08:54:45.690Z,1001.17
2023-03-21T08:55:45.774Z,1001.17
2023-03-21T08:56:45.845Z,1001.14
2023-03-21T08:57:45.963Z,1001.16
2023-03-21T08:58:46.006Z,1001.17
2023-03-21T08:59:46.114Z,1001.16
2023-03-21T09:00:46.187Z,1001.11
2023-03-21T09:01:46.337Z,1001.09
2023-03-21T09:02:46.376Z,1001.08
2023-03-21T09:03:46.423Z,1001.12
2023-03-21T09:04:46.545Z,1001.08
2023-03-21T09:05:46.573Z,1001.09
2023-03-21T09:06:46.661Z,1001.08
2023-03-21T09:07:46.753Z,1001.07
2023-03-21T09:08:46.797Z,1001.09
2023-03-21T09:09:53.416Z,1001.05
2023-03-21T09:10:46.944Z,1001.06
2023-03-21T09:11:47.011Z,1001.03
2023-03-21T09:12:47.140Z,1001.03
2023-03-21T09:13:47.169Z,1001.02
2023-03-21T09:14:47.255Z,1001.05
2023-03-21T09:15:47.385Z,1001.09
2023-03-21T09:16:47.391Z,1001.05
2023-03-21T09:17:47.485Z,1001.07
2023-03-21T09:18:47.594Z,1001.01
2023-03-21T09:19:47.604Z,1001.00
2023-03-21T09:20:47.686Z,1000.95
2023-03-21T09:21:47.769Z,1001.02
2023-03-21T09:22:47.843Z,1000.97
2023-03-21T09:23:47.905Z,1000.99
2023-03-21T09:24:47.990Z,1001.02
2023-03-21T09:25:48.084Z,1001.02
2023-03-21T09:26:48.154Z,1000.99
2023-03-21T09:27:48.269Z,1001.03
2023-03-21T09:28:48.309Z,1001.02
2023-03-21T09:29:48.380Z,1001.08
2023-03-21T09:30:48.455Z,1001.03
2023-03-21T09:31:48.640Z,1001.07
2023-03-21T09:32:48.729Z,1001.00
2023-03-21T09:33:48.656Z,1001.06
2023-03-21T09:34:48.738Z,1001.01
2023-03-21T09:35:51.641Z,1001.04
2023-03-21T09:36:48.881Z,1001.08
2023-03-21T09:37:49.006Z,1001.03
2023-03-21T09:38:49.036Z,1001.12
2023-03-21T09:39:49.112Z,1001.08
2023-03-21T09:40:49.200Z,1001.05
2023-03-21T09:41:49.269Z,1001.07
2023-03-21T09:42:49.385Z,1001.05
2023-03-21T09:43:49.446Z,1001.05
2023-03-21T09:44:49.513Z,1001.06
2023-03-21T09:45:49.648Z,1001.07
2023-03-21T09:46:49.768Z,1001.06
2023-03-21T09:47:49.978Z,1001.07
2023-03-21T09:48:56.707Z,1001.06
2023-03-21T09:49:49.956Z,1001.10
2023-03-21T09:50:50.037Z,1001.11
2023-03-21T09:51:50.129Z,1001.07
2023-03-21T09:52:50.220Z,1001.09
2023-03-21T09:53:50.304Z,1001.10
2023-03-21T09:54:50.384Z,1001.06
2023-03-21T09:55:50.457Z,1001.05
2023-03-21T09:56:50.526Z,1001.03
2023-03-21T09:57:52.499Z,1001.03
2023-03-21T09:58:50.678Z,1001.02
2023-03-21T09:59:50.765Z,1000.98
2023-03-21T10:00:50.888Z,1000.95
2023-03-21T10:01:50.916Z,1000.92
2023-03-21T10:02:50.981Z,1000.91
2023-03-21T10:03:51.054Z,1000.98
2023-03-21T10:04:51.229Z,1000.93
2023-03-21T10:05:51.253Z,1000.90
2023-03-21T10:06:51.299Z,1000.83
2023-03-21T10:07:51.378Z,1000.85
2023-03-21T10:08:51.450Z,1000.84
2023-03-21T10:09:51.527Z,1000.85
2023-03-21T10:10:51.644Z,1000.85
2023-03-21T10:11:51.686Z,1000.84
2023-03-21T10:12:51.769Z,1000.85
2023-03-21T10:13:51.846Z,1000.80
2023-03-21T10:14:51.900Z,1000.81
2023-03-21T10:15:52.012Z,1000.75
2023-03-21T10:16:52.126Z,1000.79
2023-03-21T10:17:52.154Z,1000.75
2023-03-21T10:18:52.228Z,1000.69
2023-03-21T10:19:52.323Z,1000.70
2023-03-21T10:20:52.422Z,1000.73
2023-03-21T10:22:02.107Z,1000.65
2023-03-21T10:22:52.583Z,1000.68
2023-03-21T10:23:52.654Z,1000.64
2023-03-21T10:24:52.735Z,1000.61
2023-03-21T10:25:52.879Z,1000.62
2023-03-21T10:26:52.920Z,1000.57
2023-03-21T10:27:53.006Z,1000.58
2023-03-21T10:28:53.796Z,1000.54
2023-03-21T10:29:53.216Z,1000.56
2023-03-21T10:30:53.243Z,1000.55
2023-03-21T10:31:53.321Z,1000.48
2023-03-21T10:32:53.427Z,1000.47
2023-03-21T10:33:53.471Z,1000.49
2023-03-21T10:34:53.589Z,1000.45
2023-03-21T10:35:53.757Z,1000.47
2023-03-21T10:36:53.711Z,1000.44
2023-03-21T10:37:53.788Z,1000.38
2023-03-21T10:38:53.878Z,1000.34
2023-03-21T10:39:53.969Z,1000.37
2023-03-21T10:40:54.054Z,1000.32
2023-03-21T10:41:54.103Z,1000.31
2023-03-21T10:42:54.164Z,1000.29
2023-03-21T10:43:54.237Z,1000.23
2023-03-21T10:44:54.341Z,1000.26
2023-03-21T10:45:54.719Z,1000.22
2023-03-21T10:46:54.765Z,1000.23
2023-03-21T10:47:54.850Z,1000.22
2023-03-21T10:48:54.720Z,1000.17
2023-03-21T10:50:11.055Z,1000.16
2023-03-21T10:50:54.926Z,1000.30
2023-03-21T10:51:54.877Z,1000.21
2023-03-21T10:52:54.954Z,1000.19
2023-03-21T10:53:55.053Z,1000.17
2023-03-21T10:54:55.132Z,1000.15
2023-03-21T10:55:55.219Z,1000.16
2023-03-21T10:56:55.267Z,1000.17
2023-03-21T10:57:55.343Z,1000.13
2023-03-21T10:58:55.432Z,1000.15
2023-03-21T10:59:55.506Z,1000.16
2023-03-21T11:00:55.623Z,1000.12
2023-03-21T11:01:55.732Z,1000.12
2023-03-21T11:02:55.719Z,1000.11
2023-03-21T11:03:55.809Z,1000.14
2023-03-21T11:04:55.889Z,1000.14
2023-03-21T11:05:55.990Z,1000.14
2023-03-21T11:06:56.037Z,1000.06
2023-03-21T11:07:56.111Z,1000.10
2023-03-21T11:08:56.206Z,1000.15
2023-03-21T11:09:56.289Z,1000.15
2023-03-21T11:10:56.375Z,1000.12
2023-03-21T11:11:56.453Z,1000.08
2023-03-21T11:12:56.500Z,1000.15
2023-03-21T11:13:56.587Z,1000.12
2023-03-21T11:14:56.645Z,1000.11
2023-03-21T11:15:56.743Z,1000.09
2023-03-21T11:16:56.862Z,1000.10
2023-03-21T11:17:56.932Z,1000.10
2023-03-21T11:18:56.989Z,1000.04
2023-03-21T11:19:57.073Z,1000.09
2023-03-21T11:20:57.177Z,1000.02
2023-03-21T11:21:57.226Z,1000.03
2023-03-21T11:22:57.305Z,1000.05
2023-03-21T11:23:57.522Z,1000.01
2023-03-21T11:24:57.441Z,1000.01
2023-03-21T11:25:57.539Z,999.97
2023-03-21T11:26:57.618Z,999.95
2023-03-21T11:27:57.712Z,999.97
2023-03-21T11:28:57.775Z,999.90
2023-03-21T11:29:57.862Z,999.87
2023-03-21T11:30:58.021Z,999.90
2023-03-21T11:31:58.028Z,999.88
2023-03-21T11:32:58.099Z,999.85
2023-03-21T11:33:58.418Z,999.84
2023-03-21T11:34:58.253Z,999.81
2023-03-21T11:35:58.410Z,999.80
2023-03-21T11:36:58.414Z,999.83
2023-03-21T11:37:58.512Z,999.79
2023-03-21T11:38:58.609Z,999.78
2023-03-21T11:39:58.676Z,999.73
2023-03-21T11:40:58.767Z,999.70
2023-03-21T11:41:58.875Z,999.69
2023-03-21T11:42:58.930Z,999.70
2023-03-21T11:43:59.017Z,999.64
2023-03-21T11:44:59.098Z,999.66
2023-03-21T11:45:59.227Z,999.63
2023-03-21T11:46:59.221Z,999.62
2023-03-21T11:47:59.376Z,999.63
2023-03-21T11:48:59.354Z,999.58
2023-03-21T11:50:04.855Z,999.58
2023-03-21T11:50:59.523Z,999.58
2023-03-21T11:51:59.581Z,999.60
2023-03-21T11:52:59.638Z,999.59
2023-03-21T11:53:59.739Z,999.56
2023-03-21T11:54:59.816Z,999.54
2023-03-21T11:55:59.906Z,999.59
2023-03-21T11:56:59.963Z,999.59
2023-03-21T11:58:05.324Z,999.58
2023-03-21T11:59:00.181Z,999.58
2023-03-21T12:00:00.216Z,999.60
2023-03-21T12:01:00.313Z,999.59
2023-03-21T12:02:00.372Z,999.61
2023-03-21T12:03:00.466Z,999.60
2023-03-21T12:04:00.542Z,999.57
2023-03-21T12:05:00.587Z,999.59
2023-03-21T12:06:00.718Z,999.58
2023-03-21T12:07:00.742Z,999.53
2023-03-21T12:08:00.840Z,999.51